sensor_id;sensor_type;location;lat;lon;timestamp;pressure;altitude;pressure_sealevel;temperature;humidity
27294;BME280;14785;52.556;13.430;2022-12-16T00:01:07;100290.78;;;0.31;100.00
27294;BME280;14785;52.556;13.430;2022-12-16T00:03:33;100297.19;;;0.27;100.00
27294;BME280;14785;52.556;13.430;2022-12-16T00:05:59;100304.41;;;0.36;100.00
27294;BME280;14785;52.556;13.430;2022-12-16T00:08:25;100302.00;;;0.33;100.00
27294;BME280;14785;52.556;13.430;2022-12-16T00:10:56;100305.28;;;0.49;100.00
27294;BME280;14785;52.556;13.430;2022-12-16T00:13:21;100299.38;;;0.33;100.00
27294;BME280;14785;52.556;13.430;2022-12-16T00:15:46;100303.38;;;0.38;100.00
27294;BME280;14785;52.556;13.430;2022-12-16T00:18:13;100299.94;;;0.50;100.00
27294;BME280;14785;52.556;13.430;2022-12-16T00:20:44;100305.63;;;0.57;100.00
27294;BME280;14785;52.556;13.430;2022-12-16T00:23:10;100309.03;;;0.45;100.00
27294;BME280;14785;52.556;13.430;2022-12-16T00:25:35;100316.88;;;0.06;100.00
27294;BME280;14785;52.556;13.430;2022-12-16T00:28:01;100314.38;;;0.17;100.00
27294;BME280;14785;52.556;13.430;2022-12-16T00:30:26;100312.56;;;0.31;100.00
27294;BME280;14785;52.556;13.430;2022-12-16T00:32:51;100304.06;;;0.28;100.00
27294;BME280;14785;52.556;13.430;2022-12-16T00:35:17;100306.13;;;0.49;100.00
27294;BME280;14785;52.556;13.430;2022-12-16T00:37:42;100311.16;;;0.26;100.00
27294;BME280;14785;52.556;13.430;2022-12-16T00:40:08;100310.75;;;0.32;100.00
27294;BME280;14785;52.556;13.430;2022-12-16T00:42:33;100314.47;;;0.42;100.00
27294;BME280;14785;52.556;13.430;2022-12-16T00:44:59;100316.22;;;-0.39;100.00
27294;BME280;14785;52.556;13.430;2022-12-16T00:47:24;100328.69;;;-0.16;100.00
27294;BME280;14785;52.556;13.430;2022-12-16T00:49:49;100326.66;;;0.02;100.00
27294;BME280;14785;52.556;13.430;2022-12-16T00:52:15;100334.28;;;-0.08;100.00
27294;BME280;14785;52.556;13.430;2022-12-16T00:54:40;100333.41;;;-0.91;100.00
27294;BME280;14785;52.556;13.430;2022-12-16T00:57:06;100331.47;;;-1.45;100.00
27294;BME280;14785;52.556;13.430;2022-12-16T00:59:31;100327.59;;;-1.38;100.00
27294;BME280;14785;52.556;13.430;2022-12-16T01:01:56;100328.53;;;-1.25;100.00
27294;BME280;14785;52.556;13.430;2022-12-16T01:04:22;100331.91;;;-1.23;100.00
27294;BME280;14785;52.556;13.430;2022-12-16T01:06:47;100329.59;;;-1.43;100.00
27294;BME280;14785;52.556;13.430;2022-12-16T01:09:12;100325.59;;;-1.05;100.00
27294;BME280;14785;52.556;13.430;2022-12-16T01:11:38;100330.59;;;-1.02;100.00
27294;BME280;14785;52.556;13.430;2022-12-16T01:14:03;100325.00;;;-0.54;100.00
27294;BME280;14785;52.556;13.430;2022-12-16T01:16:29;100334.31;;;-0.22;100.00
27294;BME280;14785;52.556;13.430;2022-12-16T01:18:54;100332.88;;;-0.13;100.00
27294;BME280;14785;52.556;13.430;2022-12-16T01:21:20;100333.53;;;-0.10;100.00
27294;BME280;14785;52.556;13.430;2022-12-16T01:23:46;100331.28;;;-0.02;100.00
27294;BME280;14785;52.556;13.430;2022-12-16T01:26:14;100333.69;;;0.28;100.00
27294;BME280;14785;52.556;13.430;2022-12-16T01:28:40;100335.66;;;0.25;100.00
27294;BME280;14785;52.556;13.430;2022-12-16T01:31:05;100337.13;;;0.02;100.00
27294;BME280;14785;52.556;13.430;2022-12-16T01:33:31;100337.72;;;-0.07;100.00
27294;BME280;14785;52.556;13.430;2022-12-16T01:36:03;100335.94;;;0.20;100.00
27294;BME280;14785;52.556;13.430;2022-12-16T01:38:29;100331.13;;;0.14;100.00
27294;BME280;14785;52.556;13.430;2022-12-16T01:40:55;100338.72;;;0.31;100.00
27294;BME280;14785;52.556;13.430;2022-12-16T01:43:23;100332.47;;;0.20;100.00
27294;BME280;14785;52.556;13.430;2022-12-16T01:45:51;100332.78;;;-0.12;100.00
27294;BME280;14785;52.556;13.430;2022-12-16T01:51:10;100332.84;;;0.01;100.00
27294;BME280;14785;52.556;13.430;2022-12-16T01:53:40;100322.63;;;0.11;100.00
27294;BME280;14785;52.556;13.430;2022-12-16T01:56:07;100331.75;;;0.18;100.00
27294;BME280;14785;52.556;13.430;2022-12-16T01:58:35;100335.59;;;0.39;100.00
27294;BME280;14785;52.556;13.430;2022-12-16T02:01:03;100323.81;;;0.19;100.00
27294;BME280;14785;52.556;13.430;2022-12-16T02:03:31;100327.81;;;0.25;100.00
27294;BME280;14785;52.556;13.430;2022-12-16T02:05:58;100331.16;;;0.27;100.00
27294;BME280;14785;52.556;13.430;2022-12-16T02:08:25;100321.06;;;0.08;100.00
27294;BME280;14785;52.556;13.430;2022-12-16T02:13:43;100331.31;;;0.11;100.00
27294;BME280;14785;52.556;13.430;2022-12-16T02:16:28;100325.09;;;-0.01;100.00
27294;BME280;14785;52.556;13.430;2022-12-16T02:27:52;100323.47;;;-0.16;100.00
27294;BME280;14785;52.556;13.430;2022-12-16T02:33:54;100322.75;;;-0.32;100.00
27294;BME280;14785;52.556;13.430;2022-12-16T02:38:58;100327.91;;;-0.04;100.00
27294;BME280;14785;52.556;13.430;2022-12-16T02:41:32;100319.97;;;-0.02;100.00
27294;BME280;14785;52.556;13.430;2022-12-16T02:44:07;100321.59;;;-0.14;100.00
27294;BME280;14785;52.556;13.430;2022-12-16T02:46:38;100321.25;;;-0.36;100.00
27294;BME280;14785;52.556;13.430;2022-12-16T02:51:37;100314.69;;;-0.15;100.00
27294;BME280;14785;52.556;13.430;2022-12-16T02:54:03;100320.25;;;-0.33;100.00
27294;BME280;14785;52.556;13.430;2022-12-16T03:05:14;100312.69;;;-0.38;100.00
27294;BME280;14785;52.556;13.430;2022-12-16T03:07:44;100304.59;;;-0.61;100.00
27294;BME280;14785;52.556;13.430;2022-12-16T03:10:15;100307.31;;;-0.91;100.00
27294;BME280;14785;52.556;13.430;2022-12-16T03:12:44;100316.78;;;-1.32;100.00
27294;BME280;14785;52.556;13.430;2022-12-16T03:15:12;100317.09;;;-0.94;100.00
27294;BME280;14785;52.556;13.430;2022-12-16T03:17:40;100310.47;;;-0.58;100.00
27294;BME280;14785;52.556;13.430;2022-12-16T03:20:10;100314.38;;;-0.37;100.00
27294;BME280;14785;52.556;13.430;2022-12-16T03:22:41;100311.34;;;-0.17;100.00
27294;BME280;14785;52.556;13.430;2022-12-16T03:25:08;100309.41;;;-0.27;100.00
27294;BME280;14785;52.556;13.430;2022-12-16T03:30:36;100307.72;;;-0.28;100.00
27294;BME280;14785;52.556;13.430;2022-12-16T03:33:15;100306.25;;;-0.32;100.00
27294;BME280;14785;52.556;13.430;2022-12-16T03:35:48;100306.69;;;-0.26;100.00
27294;BME280;14785;52.556;13.430;2022-12-16T03:38:16;100307.47;;;-0.38;100.00
27294;BME280;14785;52.556;13.430;2022-12-16T03:40:43;100312.75;;;-0.25;100.00
27294;BME280;14785;52.556;13.430;2022-12-16T03:43:13;100296.66;;;-0.60;100.00
27294;BME280;14785;52.556;13.430;2022-12-16T03:45:41;100308.88;;;-0.46;100.00
27294;BME280;14785;52.556;13.430;2022-12-16T03:48:09;100311.38;;;-0.45;100.00
27294;BME280;14785;52.556;13.430;2022-12-16T03:50:36;100302.63;;;-0.58;100.00
27294;BME280;14785;52.556;13.430;2022-12-16T03:53:02;100295.56;;;-0.70;100.00
27294;BME280;14785;52.556;13.430;2022-12-16T03:55:28;100296.69;;;-0.74;100.00
27294;BME280;14785;52.556;13.430;2022-12-16T03:57:53;100291.47;;;-0.88;100.00
27294;BME280;14785;52.556;13.430;2022-12-16T04:00:19;100289.53;;;-0.84;100.00
27294;BME280;14785;52.556;13.430;2022-12-16T04:02:45;100291.63;;;-1.33;100.00
27294;BME280;14785;52.556;13.430;2022-12-16T04:05:11;100299.63;;;-1.36;100.00
27294;BME280;14785;52.556;13.430;2022-12-16T04:07:37;100300.97;;;-1.58;100.00
27294;BME280;14785;52.556;13.430;2022-12-16T04:10:03;100297.19;;;-1.39;100.00
27294;BME280;14785;52.556;13.430;2022-12-16T04:12:28;100310.13;;;-0.80;100.00
27294;BME280;14785;52.556;13.430;2022-12-16T04:15:12;100308.97;;;-0.90;100.00
27294;BME280;14785;52.556;13.430;2022-12-16T04:17:43;100314.41;;;-0.65;100.00
27294;BME280;14785;52.556;13.430;2022-12-16T04:20:31;100311.59;;;-0.76;100.00
27294;BME280;14785;52.556;13.430;2022-12-16T04:23:15;100306.25;;;-1.16;100.00
27294;BME280;14785;52.556;13.430;2022-12-16T04:26:00;100320.56;;;-1.08;100.00
27294;BME280;14785;52.556;13.430;2022-12-16T04:28:26;100318.84;;;-1.09;100.00
27294;BME280;14785;52.556;13.430;2022-12-16T04:30:51;100321.13;;;-0.89;100.00
27294;BME280;14785;52.556;13.430;2022-12-16T04:33:17;100323.06;;;-1.06;100.00
27294;BME280;14785;52.556;13.430;2022-12-16T04:36:01;100316.63;;;-1.01;100.00
27294;BME280;14785;52.556;13.430;2022-12-16T04:38:45;100316.97;;;-1.21;100.00
27294;BME280;14785;52.556;13.430;2022-12-16T04:41:29;100323.91;;;-0.78;100.00
27294;BME280;14785;52.556;13.430;2022-12-16T04:44:13;100325.41;;;-0.74;100.00
27294;BME280;14785;52.556;13.430;2022-12-16T04:46:57;100314.59;;;-0.68;100.00
27294;BME280;14785;52.556;13.430;2022-12-16T04:49:41;100325.94;;;-0.41;100.00
27294;BME280;14785;52.556;13.430;2022-12-16T04:52:25;100328.00;;;-0.46;100.00
27294;BME280;14785;52.556;13.430;2022-12-16T04:55:10;100325.75;;;-0.52;100.00
27294;BME280;14785;52.556;13.430;2022-12-16T04:57:57;100326.22;;;-0.45;100.00
27294;BME280;14785;52.556;13.430;2022-12-16T05:00:41;100333.03;;;-0.57;100.00
27294;BME280;14785;52.556;13.430;2022-12-16T05:03:26;100332.66;;;-0.51;100.00
27294;BME280;14785;52.556;13.430;2022-12-16T05:06:11;100333.59;;;-0.66;100.00
27294;BME280;14785;52.556;13.430;2022-12-16T05:08:55;100334.88;;;-0.45;100.00
27294;BME280;14785;52.556;13.430;2022-12-16T05:11:39;100339.81;;;-0.40;100.00
27294;BME280;14785;52.556;13.430;2022-12-16T05:14:24;100339.06;;;-0.28;100.00
27294;BME280;14785;52.556;13.430;2022-12-16T05:17:07;100338.25;;;-0.57;100.00
27294;BME280;14785;52.556;13.430;2022-12-16T05:19:51;100338.97;;;-0.27;100.00
27294;BME280;14785;52.556;13.430;2022-12-16T05:22:35;100340.72;;;-0.13;100.00
27294;BME280;14785;52.556;13.430;2022-12-16T05:25:20;100343.84;;;-0.35;100.00
27294;BME280;14785;52.556;13.430;2022-12-16T05:28:04;100340.13;;;-0.73;100.00
27294;BME280;14785;52.556;13.430;2022-12-16T05:30:48;100336.59;;;-0.58;100.00
27294;BME280;14785;52.556;13.430;2022-12-16T05:33:32;100343.31;;;-0.82;100.00
27294;BME280;14785;52.556;13.430;2022-12-16T05:36:16;100347.31;;;-0.62;100.00
27294;BME280;14785;52.556;13.430;2022-12-16T05:39:00;100351.31;;;-0.43;100.00
27294;BME280;14785;52.556;13.430;2022-12-16T05:41:44;100348.72;;;-0.71;100.00
27294;BME280;14785;52.556;13.430;2022-12-16T05:44:28;100357.56;;;-0.73;100.00
27294;BME280;14785;52.556;13.430;2022-12-16T05:47:12;100345.06;;;-0.96;100.00
27294;BME280;14785;52.556;13.430;2022-12-16T05:49:56;100356.81;;;-0.89;100.00
27294;BME280;14785;52.556;13.430;2022-12-16T05:52:47;100366.03;;;-0.98;100.00
27294;BME280;14785;52.556;13.430;2022-12-16T05:55:32;100371.00;;;-0.93;100.00
27294;BME280;14785;52.556;13.430;2022-12-16T05:58:15;100372.78;;;-0.80;100.00
27294;BME280;14785;52.556;13.430;2022-12-16T06:00:59;100375.00;;;-0.60;100.00
27294;BME280;14785;52.556;13.430;2022-12-16T06:03:44;100375.09;;;-0.61;100.00
27294;BME280;14785;52.556;13.430;2022-12-16T06:06:28;100391.63;;;-0.47;100.00
27294;BME280;14785;52.556;13.430;2022-12-16T06:09:12;100385.81;;;-0.94;100.00
27294;BME280;14785;52.556;13.430;2022-12-16T06:11:56;100392.63;;;-1.21;100.00
27294;BME280;14785;52.556;13.430;2022-12-16T06:14:40;100399.47;;;-1.79;100.00
27294;BME280;14785;52.556;13.430;2022-12-16T06:17:25;100412.94;;;-1.71;100.00
27294;BME280;14785;52.556;13.430;2022-12-16T06:20:09;100411.41;;;-1.44;100.00
27294;BME280;14785;52.556;13.430;2022-12-16T06:22:54;100414.44;;;-1.82;100.00
27294;BME280;14785;52.556;13.430;2022-12-16T06:25:39;100428.81;;;-1.60;100.00
27294;BME280;14785;52.556;13.430;2022-12-16T06:28:24;100423.16;;;-1.37;100.00
27294;BME280;14785;52.556;13.430;2022-12-16T06:31:08;100426.34;;;-1.32;100.00
27294;BME280;14785;52.556;13.430;2022-12-16T06:33:53;100434.28;;;-1.49;100.00
27294;BME280;14785;52.556;13.430;2022-12-16T06:36:37;100432.09;;;-1.41;100.00
27294;BME280;14785;52.556;13.430;2022-12-16T06:39:22;100436.41;;;-1.71;100.00
27294;BME280;14785;52.556;13.430;2022-12-16T06:42:06;100441.03;;;-1.60;100.00
27294;BME280;14785;52.556;13.430;2022-12-16T06:44:50;100438.00;;;-1.53;100.00
27294;BME280;14785;52.556;13.430;2022-12-16T06:47:34;100439.00;;;-1.71;100.00
27294;BME280;14785;52.556;13.430;2022-12-16T06:50:18;100448.75;;;-1.74;100.00
27294;BME280;14785;52.556;13.430;2022-12-16T06:53:02;100456.31;;;-1.70;100.00
27294;BME280;14785;52.556;13.430;2022-12-16T06:55:47;100457.13;;;-2.01;100.00
27294;BME280;14785;52.556;13.430;2022-12-16T06:58:31;100459.19;;;-1.74;100.00
27294;BME280;14785;52.556;13.430;2022-12-16T07:01:15;100453.06;;;-1.89;100.00
27294;BME280;14785;52.556;13.430;2022-12-16T07:04:00;100452.09;;;-1.57;100.00
27294;BME280;14785;52.556;13.430;2022-12-16T07:06:44;100460.19;;;-2.08;100.00
27294;BME280;14785;52.556;13.430;2022-12-16T07:09:28;100461.53;;;-1.70;100.00
27294;BME280;14785;52.556;13.430;2022-12-16T07:12:12;100473.38;;;-1.33;100.00
27294;BME280;14785;52.556;13.430;2022-12-16T07:14:56;100476.44;;;-1.41;100.00
27294;BME280;14785;52.556;13.430;2022-12-16T07:17:40;100485.06;;;-1.87;100.00
27294;BME280;14785;52.556;13.430;2022-12-16T07:20:25;100489.47;;;-1.41;100.00
27294;BME280;14785;52.556;13.430;2022-12-16T07:23:09;100511.50;;;-1.31;100.00
27294;BME280;14785;52.556;13.430;2022-12-16T07:25:53;100503.41;;;-1.42;100.00
27294;BME280;14785;52.556;13.430;2022-12-16T07:28:37;100504.25;;;-1.26;100.00
27294;BME280;14785;52.556;13.430;2022-12-16T07:31:21;100507.59;;;-1.08;100.00
27294;BME280;14785;52.556;13.430;2022-12-16T07:34:04;100516.44;;;-1.11;100.00
27294;BME280;14785;52.556;13.430;2022-12-16T07:36:48;100516.84;;;-1.03;100.00
27294;BME280;14785;52.556;13.430;2022-12-16T07:39:32;100525.94;;;-1.10;100.00
27294;BME280;14785;52.556;13.430;2022-12-16T07:42:16;100532.97;;;-1.26;100.00
27294;BME280;14785;52.556;13.430;2022-12-16T07:45:00;100536.53;;;-1.75;100.00
27294;BME280;14785;52.556;13.430;2022-12-16T07:47:48;100543.25;;;-1.86;100.00
27294;BME280;14785;52.556;13.430;2022-12-16T07:50:32;100547.63;;;-1.87;100.00
27294;BME280;14785;52.556;13.430;2022-12-16T07:53:17;100551.78;;;-1.67;100.00
27294;BME280;14785;52.556;13.430;2022-12-16T07:56:01;100552.91;;;-1.56;100.00
27294;BME280;14785;52.556;13.430;2022-12-16T07:58:45;100558.19;;;-2.06;100.00
27294;BME280;14785;52.556;13.430;2022-12-16T08:01:29;100557.09;;;-1.53;100.00
27294;BME280;14785;52.556;13.430;2022-12-16T08:04:13;100557.78;;;-1.19;100.00
27294;BME280;14785;52.556;13.430;2022-12-16T08:06:57;100566.78;;;-1.40;100.00
27294;BME280;14785;52.556;13.430;2022-12-16T08:09:41;100571.88;;;-1.54;100.00
27294;BME280;14785;52.556;13.430;2022-12-16T08:12:25;100565.28;;;-1.92;100.00
27294;BME280;14785;52.556;13.430;2022-12-16T08:15:09;100579.63;;;-1.52;100.00
27294;BME280;14785;52.556;13.430;2022-12-16T08:17:53;100574.47;;;-2.02;100.00
27294;BME280;14785;52.556;13.430;2022-12-16T08:20:37;100582.66;;;-1.60;100.00
27294;BME280;14785;52.556;13.430;2022-12-16T08:23:22;100583.78;;;-1.81;100.00
27294;BME280;14785;52.556;13.430;2022-12-16T08:26:06;100583.13;;;-1.69;100.00
27294;BME280;14785;52.556;13.430;2022-12-16T08:28:50;100591.50;;;-1.95;100.00
27294;BME280;14785;52.556;13.430;2022-12-16T08:31:34;100592.59;;;-2.16;100.00
27294;BME280;14785;52.556;13.430;2022-12-16T08:34:18;100587.00;;;-1.76;100.00
27294;BME280;14785;52.556;13.430;2022-12-16T08:37:03;100594.78;;;-1.43;100.00
27294;BME280;14785;52.556;13.430;2022-12-16T08:39:47;100599.50;;;-1.50;100.00
27294;BME280;14785;52.556;13.430;2022-12-16T08:42:31;100590.59;;;-1.46;100.00
27294;BME280;14785;52.556;13.430;2022-12-16T08:45:15;100593.06;;;-1.60;100.00
27294;BME280;14785;52.556;13.430;2022-12-16T08:47:59;100598.63;;;-1.66;100.00
27294;BME280;14785;52.556;13.430;2022-12-16T08:50:43;100588.72;;;-1.92;100.00
27294;BME280;14785;52.556;13.430;2022-12-16T08:53:28;100601.22;;;-1.66;100.00
27294;BME280;14785;52.556;13.430;2022-12-16T08:56:12;100608.28;;;-1.20;100.00
27294;BME280;14785;52.556;13.430;2022-12-16T08:58:56;100603.06;;;-1.20;100.00
27294;BME280;14785;52.556;13.430;2022-12-16T09:01:40;100607.44;;;-1.05;100.00
27294;BME280;14785;52.556;13.430;2022-12-16T09:04:24;100610.63;;;-1.31;100.00
27294;BME280;14785;52.556;13.430;2022-12-16T09:07:08;100614.00;;;-1.29;100.00
27294;BME280;14785;52.556;13.430;2022-12-16T09:09:52;100604.41;;;-1.13;100.00
27294;BME280;14785;52.556;13.430;2022-12-16T09:12:36;100611.47;;;-1.15;100.00
27294;BME280;14785;52.556;13.430;2022-12-16T09:15:20;100609.75;;;-1.00;100.00
27294;BME280;14785;52.556;13.430;2022-12-16T09:18:04;100611.75;;;-0.59;100.00
27294;BME280;14785;52.556;13.430;2022-12-16T09:20:50;100612.94;;;-0.64;100.00
27294;BME280;14785;52.556;13.430;2022-12-16T09:23:34;100614.13;;;-0.70;100.00
27294;BME280;14785;52.556;13.430;2022-12-16T09:26:18;100614.50;;;-0.46;100.00
27294;BME280;14785;52.556;13.430;2022-12-16T09:29:02;100615.03;;;-0.26;100.00
27294;BME280;14785;52.556;13.430;2022-12-16T09:31:47;100617.03;;;-0.15;100.00
27294;BME280;14785;52.556;13.430;2022-12-16T09:34:31;100626.22;;;-0.24;100.00
27294;BME280;14785;52.556;13.430;2022-12-16T09:37:15;100622.53;;;-0.20;100.00
27294;BME280;14785;52.556;13.430;2022-12-16T09:39:59;100620.88;;;-0.07;100.00
27294;BME280;14785;52.556;13.430;2022-12-16T09:48:39;100615.47;;;0.67;100.00
27294;BME280;14785;52.556;13.430;2022-12-16T09:51:28;100619.56;;;0.71;100.00
27294;BME280;14785;52.556;13.430;2022-12-16T09:54:15;100614.56;;;0.40;100.00
27294;BME280;14785;52.556;13.430;2022-12-16T09:57:02;100609.25;;;0.55;100.00
27294;BME280;14785;52.556;13.430;2022-12-16T09:59:52;100614.63;;;0.80;100.00
27294;BME280;14785;52.556;13.430;2022-12-16T10:02:37;100622.19;;;0.71;100.00
27294;BME280;14785;52.556;13.430;2022-12-16T10:05:30;100614.91;;;0.90;100.00
27294;BME280;14785;52.556;13.430;2022-12-16T10:08:27;100620.72;;;0.53;100.00
27294;BME280;14785;52.556;13.430;2022-12-16T10:11:22;100611.75;;;0.57;100.00
27294;BME280;14785;52.556;13.430;2022-12-16T10:14:18;100612.69;;;0.42;100.00
27294;BME280;14785;52.556;13.430;2022-12-16T10:17:12;100612.84;;;0.81;100.00
27294;BME280;14785;52.556;13.430;2022-12-16T10:20:03;100618.41;;;1.03;100.00
27294;BME280;14785;52.556;13.430;2022-12-16T10:28:40;100601.81;;;1.43;100.00
27294;BME280;14785;52.556;13.430;2022-12-16T10:31:27;100609.78;;;1.15;100.00
27294;BME280;14785;52.556;13.430;2022-12-16T10:34:14;100597.66;;;1.26;100.00
27294;BME280;14785;52.556;13.430;2022-12-16T10:37:00;100610.28;;;1.20;100.00
27294;BME280;14785;52.556;13.430;2022-12-16T10:39:49;100608.50;;;1.34;100.00
27294;BME280;14785;52.556;13.430;2022-12-16T10:42:44;100616.53;;;1.58;100.00
27294;BME280;14785;52.556;13.430;2022-12-16T10:45:51;100618.59;;;1.53;100.00
27294;BME280;14785;52.556;13.430;2022-12-16T10:48:36;100623.59;;;1.17;100.00
27294;BME280;14785;52.556;13.430;2022-12-16T10:51:22;100629.06;;;1.53;100.00
27294;BME280;14785;52.556;13.430;2022-12-16T10:57:19;100622.66;;;1.83;100.00
27294;BME280;14785;52.556;13.430;2022-12-16T11:00:08;100625.56;;;1.66;100.00
27294;BME280;14785;52.556;13.430;2022-12-16T11:02:52;100622.00;;;1.41;100.00
27294;BME280;14785;52.556;13.430;2022-12-16T11:05:36;100633.41;;;1.66;100.00
27294;BME280;14785;52.556;13.430;2022-12-16T11:08:38;100640.97;;;1.71;100.00
27294;BME280;14785;52.556;13.430;2022-12-16T11:11:27;100641.38;;;1.52;100.00
27294;BME280;14785;52.556;13.430;2022-12-16T11:14:28;100639.09;;;1.73;100.00
27294;BME280;14785;52.556;13.430;2022-12-16T11:17:21;100634.75;;;2.11;100.00
27294;BME280;14785;52.556;13.430;2022-12-16T11:20:25;100632.97;;;1.99;100.00
27294;BME280;14785;52.556;13.430;2022-12-16T11:23:20;100637.06;;;2.03;100.00
27294;BME280;14785;52.556;13.430;2022-12-16T11:26:15;100631.59;;;2.19;100.00
27294;BME280;14785;52.556;13.430;2022-12-16T11:32:23;100649.03;;;2.32;100.00
27294;BME280;14785;52.556;13.430;2022-12-16T11:35:18;100650.53;;;2.36;100.00
27294;BME280;14785;52.556;13.430;2022-12-16T11:38:15;100649.56;;;2.25;100.00
27294;BME280;14785;52.556;13.430;2022-12-16T11:41:01;100647.44;;;2.17;100.00
27294;BME280;14785;52.556;13.430;2022-12-16T11:43:48;100654.09;;;2.48;100.00
27294;BME280;14785;52.556;13.430;2022-12-16T11:46:34;100656.94;;;2.57;100.00
27294;BME280;14785;52.556;13.430;2022-12-16T11:49:29;100659.63;;;2.68;100.00
27294;BME280;14785;52.556;13.430;2022-12-16T11:52:28;100666.16;;;2.50;100.00
27294;BME280;14785;52.556;13.430;2022-12-16T11:55:33;100655.94;;;2.96;100.00
27294;BME280;14785;52.556;13.430;2022-12-16T11:58:34;100659.09;;;2.76;100.00
27294;BME280;14785;52.556;13.430;2022-12-16T12:01:41;100662.25;;;2.68;100.00
27294;BME280;14785;52.556;13.430;2022-12-16T12:04:27;100661.22;;;2.58;100.00
27294;BME280;14785;52.556;13.430;2022-12-16T12:07:21;100661.22;;;2.58;100.00
27294;BME280;14785;52.556;13.430;2022-12-16T12:13:05;100656.38;;;2.77;100.00
27294;BME280;14785;52.556;13.430;2022-12-16T12:16:04;100661.00;;;2.61;100.00
27294;BME280;14785;52.556;13.430;2022-12-16T12:19:23;100667.50;;;2.81;100.00
27294;BME280;14785;52.556;13.430;2022-12-16T12:28:02;100667.75;;;2.40;100.00
27294;BME280;14785;52.556;13.430;2022-12-16T12:31:02;100661.44;;;2.05;100.00
27294;BME280;14785;52.556;13.430;2022-12-16T12:42:54;100684.13;;;2.69;100.00
27294;BME280;14785;52.556;13.430;2022-12-16T12:48:56;100683.06;;;2.71;100.00
27294;BME280;14785;52.556;13.430;2022-12-16T12:58:02;100688.53;;;2.68;100.00
27294;BME280;14785;52.556;13.430;2022-12-16T13:00:50;100689.38;;;2.56;100.00
27294;BME280;14785;52.556;13.430;2022-12-16T13:03:46;100691.59;;;2.50;100.00
27294;BME280;14785;52.556;13.430;2022-12-16T13:06:34;100690.31;;;2.43;100.00
27294;BME280;14785;52.556;13.430;2022-12-16T13:15:06;100707.03;;;2.54;100.00
27294;BME280;14785;52.556;13.430;2022-12-16T13:20:55;100711.41;;;2.54;100.00
27294;BME280;14785;52.556;13.430;2022-12-16T13:23:42;100716.47;;;2.69;100.00
27294;BME280;14785;52.556;13.430;2022-12-16T13:26:29;100717.31;;;2.82;100.00
27294;BME280;14785;52.556;13.430;2022-12-16T13:29:26;100723.81;;;2.89;100.00
27294;BME280;14785;52.556;13.430;2022-12-16T13:32:17;100726.13;;;2.56;100.00
27294;BME280;14785;52.556;13.430;2022-12-16T13:38:02;100737.91;;;2.88;100.00
27294;BME280;14785;52.556;13.430;2022-12-16T13:41:04;100733.28;;;2.92;100.00
27294;BME280;14785;52.556;13.430;2022-12-16T13:44:02;100738.75;;;2.89;100.00
27294;BME280;14785;52.556;13.430;2022-12-16T13:46:57;100739.69;;;3.00;100.00
27294;BME280;14785;52.556;13.430;2022-12-16T13:49:46;100741.34;;;3.01;100.00
27294;BME280;14785;52.556;13.430;2022-12-16T13:52:47;100743.78;;;2.92;100.00
27294;BME280;14785;52.556;13.430;2022-12-16T13:55:57;100749.44;;;2.98;100.00
27294;BME280;14785;52.556;13.430;2022-12-16T13:58:51;100748.91;;;2.68;100.00
27294;BME280;14785;52.556;13.430;2022-12-16T14:01:42;100755.97;;;2.80;100.00
27294;BME280;14785;52.556;13.430;2022-12-16T14:04:33;100759.53;;;3.04;100.00
27294;BME280;14785;52.556;13.430;2022-12-16T14:07:17;100769.41;;;2.88;100.00
27294;BME280;14785;52.556;13.430;2022-12-16T14:10:04;100775.19;;;2.81;100.00
27294;BME280;14785;52.556;13.430;2022-12-16T14:12:57;100770.53;;;2.59;100.00
27294;BME280;14785;52.556;13.430;2022-12-16T14:25:13;100791.03;;;2.54;100.00
27294;BME280;14785;52.556;13.430;2022-12-16T14:27:58;100792.88;;;2.40;100.00
27294;BME280;14785;52.556;13.430;2022-12-16T14:30:43;100799.56;;;2.31;100.00
27294;BME280;14785;52.556;13.430;2022-12-16T14:33:28;100797.81;;;2.32;100.00
27294;BME280;14785;52.556;13.430;2022-12-16T14:36:27;100806.13;;;2.12;100.00
27294;BME280;14785;52.556;13.430;2022-12-16T14:39:23;100806.41;;;2.07;100.00
27294;BME280;14785;52.556;13.430;2022-12-16T14:42:18;100815.22;;;2.33;100.00
27294;BME280;14785;52.556;13.430;2022-12-16T14:45:14;100817.00;;;2.32;100.00
27294;BME280;14785;52.556;13.430;2022-12-16T14:48:25;100817.59;;;2.23;100.00
27294;BME280;14785;52.556;13.430;2022-12-16T14:51:31;100819.53;;;2.07;100.00
27294;BME280;14785;52.556;13.430;2022-12-16T14:54:30;100827.94;;;2.39;100.00
27294;BME280;14785;52.556;13.430;2022-12-16T14:57:19;100821.22;;;2.35;100.00
27294;BME280;14785;52.556;13.430;2022-12-16T15:00:11;100831.28;;;2.28;100.00
27294;BME280;14785;52.556;13.430;2022-12-16T15:03:01;100825.88;;;2.56;100.00
27294;BME280;14785;52.556;13.430;2022-12-16T15:05:47;100834.63;;;2.30;100.00
27294;BME280;14785;52.556;13.430;2022-12-16T15:08:36;100831.34;;;2.53;100.00
27294;BME280;14785;52.556;13.430;2022-12-16T15:11:24;100836.13;;;2.34;100.00
27294;BME280;14785;52.556;13.430;2022-12-16T15:14:11;100843.00;;;2.49;100.00
27294;BME280;14785;52.556;13.430;2022-12-16T15:16:57;100834.84;;;2.27;100.00
27294;BME280;14785;52.556;13.430;2022-12-16T15:19:50;100841.38;;;2.34;100.00
27294;BME280;14785;52.556;13.430;2022-12-16T15:22:36;100853.00;;;2.30;100.00
27294;BME280;14785;52.556;13.430;2022-12-16T15:25:26;100856.72;;;2.40;100.00
27294;BME280;14785;52.556;13.430;2022-12-16T15:28:46;100852.72;;;2.35;100.00
27294;BME280;14785;52.556;13.430;2022-12-16T15:31:35;100859.53;;;2.37;100.00